sensor_id;sensor_type;location;lat;lon;timestamp;pressure;altitude;pressure_sealevel;temperature;humidity
78407;BME280;67692;51.074;-1.790;2023-05-16T00:00:43;101915.78;;;10.13;59.27
78407;BME280;67692;51.074;-1.790;2023-05-16T00:03:10;101922.06;;;10.07;60.37
78407;BME280;67692;51.074;-1.790;2023-05-16T00:05:37;101919.41;;;10.09;60.49
78407;BME280;67692;51.074;-1.790;2023-05-16T00:08:05;101929.47;;;9.96;60.63
78407;BME280;67692;51.074;-1.790;2023-05-16T00:10:32;101919.97;;;9.97;60.90
78407;BME280;67692;51.074;-1.790;2023-05-16T00:12:59;101921.94;;;9.92;61.22
78407;BME280;67692;51.074;-1.790;2023-05-16T00:15:26;101918.59;;;9.90;60.83
78407;BME280;67692;51.074;-1.790;2023-05-16T00:17:54;101917.81;;;9.88;60.92
78407;BME280;67692;51.074;-1.790;2023-05-16T00:20:22;101923.34;;;9.80;61.42
78407;BME280;67692;51.074;-1.790;2023-05-16T00:22:49;101913.06;;;9.78;61.11
78407;BME280;67692;51.074;-1.790;2023-05-16T00:25:17;101911.88;;;9.86;61.40
78407;BME280;67692;51.074;-1.790;2023-05-16T00:27:44;101908.38;;;9.87;61.38
78407;BME280;67692;51.074;-1.790;2023-05-16T00:30:11;101914.59;;;9.82;61.76
78407;BME280;67692;51.074;-1.790;2023-05-16T00:32:38;101909.72;;;9.76;61.94
78407;BME280;67692;51.074;-1.790;2023-05-16T00:35:06;101908.72;;;9.79;62.57
78407;BME280;67692;51.074;-1.790;2023-05-16T00:37:35;101922.66;;;9.76;63.10
78407;BME280;67692;51.074;-1.790;2023-05-16T00:40:01;101920.28;;;9.72;63.16
78407;BME280;67692;51.074;-1.790;2023-05-16T00:42:30;101921.19;;;9.71;62.52
78407;BME280;67692;51.074;-1.790;2023-05-16T00:44:57;101925.78;;;9.64;62.56
78407;BME280;67692;51.074;-1.790;2023-05-16T00:47:23;101932.91;;;9.59;62.87
78407;BME280;67692;51.074;-1.790;2023-05-16T00:49:50;101939.41;;;9.49;62.93
78407;BME280;67692;51.074;-1.790;2023-05-16T00:52:17;101924.47;;;9.56;63.22
78407;BME280;67692;51.074;-1.790;2023-05-16T00:54:43;101926.69;;;9.63;62.75
78407;BME280;67692;51.074;-1.790;2023-05-16T00:57:10;101933.41;;;9.67;62.51
78407;BME280;67692;51.074;-1.790;2023-05-16T00:59:38;101920.34;;;9.70;62.68
78407;BME280;67692;51.074;-1.790;2023-05-16T01:02:06;101925.94;;;9.61;62.29
78407;BME280;67692;51.074;-1.790;2023-05-16T01:04:33;101924.31;;;9.59;62.75
78407;BME280;67692;51.074;-1.790;2023-05-16T01:07:01;101924.25;;;9.60;62.56
78407;BME280;67692;51.074;-1.790;2023-05-16T01:09:28;101928.22;;;9.67;62.80
78407;BME280;67692;51.074;-1.790;2023-05-16T01:12:01;101926.38;;;9.71;62.39
78407;BME280;67692;51.074;-1.790;2023-05-16T01:14:38;101928.06;;;9.51;62.52
78407;BME280;67692;51.074;-1.790;2023-05-16T01:17:12;101923.41;;;9.60;63.10
78407;BME280;67692;51.074;-1.790;2023-05-16T01:19:54;101928.00;;;9.53;62.77
78407;BME280;67692;51.074;-1.790;2023-05-16T01:22:28;101933.75;;;9.20;63.61
78407;BME280;67692;51.074;-1.790;2023-05-16T01:25:04;101934.13;;;9.32;63.56
78407;BME280;67692;51.074;-1.790;2023-05-16T01:27:34;101925.38;;;9.15;63.96
78407;BME280;67692;51.074;-1.790;2023-05-16T01:30:12;101939.06;;;9.17;63.77
78407;BME280;67692;51.074;-1.790;2023-05-16T01:32:39;101930.16;;;9.04;64.01
78407;BME280;67692;51.074;-1.790;2023-05-16T01:35:07;101931.56;;;8.91;64.08
78407;BME280;67692;51.074;-1.790;2023-05-16T01:37:41;101923.41;;;8.80;64.02
78407;BME280;67692;51.074;-1.790;2023-05-16T01:40:14;101932.06;;;8.79;64.49
78407;BME280;67692;51.074;-1.790;2023-05-16T01:42:45;101928.47;;;8.83;64.29
78407;BME280;67692;51.074;-1.790;2023-05-16T01:45:16;101928.00;;;8.93;64.15
78407;BME280;67692;51.074;-1.790;2023-05-16T01:47:48;101933.38;;;8.89;64.13
78407;BME280;67692;51.074;-1.790;2023-05-16T01:50:20;101929.53;;;8.99;64.25
78407;BME280;67692;51.074;-1.790;2023-05-16T01:52:52;101933.00;;;8.98;63.74
78407;BME280;67692;51.074;-1.790;2023-05-16T01:55:25;101929.25;;;9.05;64.02
78407;BME280;67692;51.074;-1.790;2023-05-16T01:57:57;101933.59;;;8.84;64.01
78407;BME280;67692;51.074;-1.790;2023-05-16T02:00:24;101926.47;;;8.89;64.00
78407;BME280;67692;51.074;-1.790;2023-05-16T02:02:51;101932.28;;;8.94;64.04
78407;BME280;67692;51.074;-1.790;2023-05-16T02:05:18;101918.34;;;8.99;63.75
78407;BME280;67692;51.074;-1.790;2023-05-16T02:07:44;101931.59;;;9.11;63.56
78407;BME280;67692;51.074;-1.790;2023-05-16T02:10:12;101930.53;;;9.15;63.40
78407;BME280;67692;51.074;-1.790;2023-05-16T02:12:38;101928.59;;;9.20;63.24
78407;BME280;67692;51.074;-1.790;2023-05-16T02:15:07;101924.22;;;9.02;63.83
78407;BME280;67692;51.074;-1.790;2023-05-16T02:17:35;101921.94;;;9.15;63.45
78407;BME280;67692;51.074;-1.790;2023-05-16T02:20:01;101926.09;;;8.99;63.47
78407;BME280;67692;51.074;-1.790;2023-05-16T02:22:31;101923.38;;;9.02;63.88
78407;BME280;67692;51.074;-1.790;2023-05-16T02:24:58;101922.41;;;9.04;63.60
78407;BME280;67692;51.074;-1.790;2023-05-16T02:27:25;101923.31;;;9.03;63.14
78407;BME280;67692;51.074;-1.790;2023-05-16T02:29:52;101925.13;;;9.01;63.52
78407;BME280;67692;51.074;-1.790;2023-05-16T02:32:19;101917.63;;;9.15;63.67
78407;BME280;67692;51.074;-1.790;2023-05-16T02:34:46;101920.97;;;9.17;63.97
78407;BME280;67692;51.074;-1.790;2023-05-16T02:37:13;101930.91;;;9.06;63.11
78407;BME280;67692;51.074;-1.790;2023-05-16T02:39:39;101926.59;;;9.07;63.61
78407;BME280;67692;51.074;-1.790;2023-05-16T02:42:06;101923.38;;;9.02;64.26
78407;BME280;67692;51.074;-1.790;2023-05-16T02:44:33;101923.41;;;8.80;63.99
78407;BME280;67692;51.074;-1.790;2023-05-16T02:46:59;101918.91;;;8.64;64.80
78407;BME280;67692;51.074;-1.790;2023-05-16T02:49:27;101919.09;;;8.60;64.68
78407;BME280;67692;51.074;-1.790;2023-05-16T02:51:54;101918.75;;;8.68;65.36
78407;BME280;67692;51.074;-1.790;2023-05-16T02:54:20;101917.63;;;8.75;64.54
78407;BME280;67692;51.074;-1.790;2023-05-16T02:56:47;101923.06;;;8.89;64.63
78407;BME280;67692;51.074;-1.790;2023-05-16T02:59:14;101927.03;;;8.96;65.08
78407;BME280;67692;51.074;-1.790;2023-05-16T03:01:40;101915.84;;;8.97;65.09
78407;BME280;67692;51.074;-1.790;2023-05-16T03:04:07;101928.97;;;8.91;64.96
78407;BME280;67692;51.074;-1.790;2023-05-16T03:06:35;101928.09;;;8.92;65.05
78407;BME280;67692;51.074;-1.790;2023-05-16T03:09:02;101926.78;;;8.82;65.73
78407;BME280;67692;51.074;-1.790;2023-05-16T03:11:29;101919.94;;;8.81;65.84
78407;BME280;67692;51.074;-1.790;2023-05-16T03:13:55;101918.25;;;8.80;65.29
78407;BME280;67692;51.074;-1.790;2023-05-16T03:16:23;101922.66;;;8.78;65.95
78407;BME280;67692;51.074;-1.790;2023-05-16T03:18:50;101924.97;;;8.63;65.82
78407;BME280;67692;51.074;-1.790;2023-05-16T03:21:17;101923.09;;;8.67;66.19
78407;BME280;67692;51.074;-1.790;2023-05-16T03:23:44;101929.47;;;8.58;66.49
78407;BME280;67692;51.074;-1.790;2023-05-16T03:26:11;101927.69;;;8.60;66.45
78407;BME280;67692;51.074;-1.790;2023-05-16T03:28:37;101927.69;;;8.60;66.59
78407;BME280;67692;51.074;-1.790;2023-05-16T03:31:04;101917.72;;;8.51;66.86
78407;BME280;67692;51.074;-1.790;2023-05-16T03:33:31;101921.97;;;8.52;66.22
78407;BME280;67692;51.074;-1.790;2023-05-16T03:35:57;101922.94;;;8.50;65.92
78407;BME280;67692;51.074;-1.790;2023-05-16T03:38:24;101917.91;;;8.47;67.19
78407;BME280;67692;51.074;-1.790;2023-05-16T03:40:52;101921.19;;;8.50;66.90
78407;BME280;67692;51.074;-1.790;2023-05-16T03:43:18;101924.03;;;8.44;66.58
78407;BME280;67692;51.074;-1.790;2023-05-16T03:45:45;101914.50;;;8.46;66.24
78407;BME280;67692;51.074;-1.790;2023-05-16T03:48:12;101921.81;;;8.35;66.34
78407;BME280;67692;51.074;-1.790;2023-05-16T03:50:38;101921.66;;;8.40;66.54
78407;BME280;67692;51.074;-1.790;2023-05-16T03:53:05;101931.97;;;8.40;66.45
78407;BME280;67692;51.074;-1.790;2023-05-16T03:55:33;101926.06;;;8.36;66.22
78407;BME280;67692;51.074;-1.790;2023-05-16T03:58:01;101922.66;;;8.35;65.67
78407;BME280;67692;51.074;-1.790;2023-05-16T04:00:28;101924.94;;;8.43;65.16
78407;BME280;67692;51.074;-1.790;2023-05-16T04:02:55;101934.31;;;8.46;65.79
78407;BME280;67692;51.074;-1.790;2023-05-16T04:05:21;101939.41;;;8.47;65.27
78407;BME280;67692;51.074;-1.790;2023-05-16T04:07:48;101940.03;;;8.52;66.58
78407;BME280;67692;51.074;-1.790;2023-05-16T04:10:14;101944.56;;;8.47;66.47
78407;BME280;67692;51.074;-1.790;2023-05-16T04:12:41;101947.41;;;8.41;66.16
78407;BME280;67692;51.074;-1.790;2023-05-16T04:15:10;101947.78;;;8.30;66.44
78407;BME280;67692;51.074;-1.790;2023-05-16T04:17:36;101953.13;;;8.26;66.81
78407;BME280;67692;51.074;-1.790;2023-05-16T04:20:05;101947.16;;;8.24;66.65
78407;BME280;67692;51.074;-1.790;2023-05-16T04:22:32;101948.06;;;8.23;67.24
78407;BME280;67692;51.074;-1.790;2023-05-16T04:24:58;101948.13;;;8.21;67.39
78407;BME280;67692;51.074;-1.790;2023-05-16T04:27:25;101947.97;;;8.26;66.62
78407;BME280;67692;51.074;-1.790;2023-05-16T04:29:52;101939.91;;;8.12;65.87
78407;BME280;67692;51.074;-1.790;2023-05-16T04:32:19;101951.91;;;8.13;66.12
78407;BME280;67692;51.074;-1.790;2023-05-16T04:34:48;101945.72;;;8.17;65.76
78407;BME280;67692;51.074;-1.790;2023-05-16T04:37:17;101946.50;;;8.19;65.78
78407;BME280;67692;51.074;-1.790;2023-05-16T04:39:44;101954.81;;;8.27;65.98
78407;BME280;67692;51.074;-1.790;2023-05-16T04:42:11;101948.06;;;8.23;66.51
78407;BME280;67692;51.074;-1.790;2023-05-16T04:44:37;101944.00;;;8.17;66.19
78407;BME280;67692;51.074;-1.790;2023-05-16T04:47:04;101951.84;;;8.14;65.20
78407;BME280;67692;51.074;-1.790;2023-05-16T04:49:32;101945.34;;;8.04;65.53
78407;BME280;67692;51.074;-1.790;2023-05-16T04:51:59;101953.72;;;8.11;65.30
78407;BME280;67692;51.074;-1.790;2023-05-16T04:54:26;101959.47;;;8.17;66.17
78407;BME280;67692;51.074;-1.790;2023-05-16T04:56:53;101963.53;;;8.23;66.14
78407;BME280;67692;51.074;-1.790;2023-05-16T04:59:19;101957.72;;;8.18;66.13
78407;BME280;67692;51.074;-1.790;2023-05-16T05:01:46;101959.41;;;8.19;65.50
78407;BME280;67692;51.074;-1.790;2023-05-16T05:04:13;101963.13;;;8.12;64.97
78407;BME280;67692;51.074;-1.790;2023-05-16T05:06:41;101965.59;;;8.15;64.82
78407;BME280;67692;51.074;-1.790;2023-05-16T05:09:07;101964.50;;;8.20;64.37
78407;BME280;67692;51.074;-1.790;2023-05-16T05:11:34;101967.28;;;8.16;64.67
78407;BME280;67692;51.074;-1.790;2023-05-16T05:14:00;101966.19;;;8.21;65.07
78407;BME280;67692;51.074;-1.790;2023-05-16T05:16:27;101968.81;;;8.20;65.44
78407;BME280;67692;51.074;-1.790;2023-05-16T05:18:54;101964.34;;;8.25;64.54
78407;BME280;67692;51.074;-1.790;2023-05-16T05:21:21;101969.28;;;8.07;65.13
78407;BME280;67692;51.074;-1.790;2023-05-16T05:23:50;101973.94;;;8.21;64.53
78407;BME280;67692;51.074;-1.790;2023-05-16T05:26:17;101969.19;;;8.11;64.52
78407;BME280;67692;51.074;-1.790;2023-05-16T05:28:44;101977.25;;;8.25;64.87
78407;BME280;67692;51.074;-1.790;2023-05-16T05:31:10;101976.91;;;8.34;65.45
78407;BME280;67692;51.074;-1.790;2023-05-16T05:33:37;101976.84;;;8.35;65.97
78407;BME280;67692;51.074;-1.790;2023-05-16T05:36:04;101983.59;;;8.40;66.35
78407;BME280;67692;51.074;-1.790;2023-05-16T05:38:31;101975.94;;;8.37;64.77
78407;BME280;67692;51.074;-1.790;2023-05-16T05:40:58;101987.72;;;8.44;64.85
78407;BME280;67692;51.074;-1.790;2023-05-16T05:43:25;101990.94;;;8.27;64.56
78407;BME280;67692;51.074;-1.790;2023-05-16T05:45:52;101984.19;;;8.23;64.23
78407;BME280;67692;51.074;-1.790;2023-05-16T05:48:19;101992.81;;;8.22;64.02
78407;BME280;67692;51.074;-1.790;2023-05-16T05:50:45;101994.78;;;8.39;64.86
78407;BME280;67692;51.074;-1.790;2023-05-16T05:53:12;101997.22;;;8.43;64.01
78407;BME280;67692;51.074;-1.790;2023-05-16T05:55:39;101992.72;;;8.25;64.30
78407;BME280;67692;51.074;-1.790;2023-05-16T05:58:07;101998.50;;;8.31;64.37
78407;BME280;67692;51.074;-1.790;2023-05-16T06:00:34;102000.69;;;8.42;63.69
78407;BME280;67692;51.074;-1.790;2023-05-16T06:03:01;102014.13;;;8.50;63.88
78407;BME280;67692;51.074;-1.790;2023-05-16T06:05:27;102015.88;;;8.50;64.08
78407;BME280;67692;51.074;-1.790;2023-05-16T06:07:54;102018.59;;;8.69;63.52
78407;BME280;67692;51.074;-1.790;2023-05-16T06:10:20;102022.53;;;8.77;63.90
78407;BME280;67692;51.074;-1.790;2023-05-16T06:12:47;102022.03;;;8.68;63.71
78407;BME280;67692;51.074;-1.790;2023-05-16T06:15:15;102027.34;;;8.64;63.10
78407;BME280;67692;51.074;-1.790;2023-05-16T06:17:42;102028.13;;;8.67;63.80
78407;BME280;67692;51.074;-1.790;2023-05-16T06:20:09;102028.44;;;8.59;63.73
78407;BME280;67692;51.074;-1.790;2023-05-16T06:22:36;102027.97;;;8.71;63.91
78407;BME280;67692;51.074;-1.790;2023-05-16T06:25:03;102023.25;;;8.81;63.71
78407;BME280;67692;51.074;-1.790;2023-05-16T06:27:30;102033.94;;;8.93;63.02
78407;BME280;67692;51.074;-1.790;2023-05-16T06:29:57;102027.16;;;8.91;63.20
78407;BME280;67692;51.074;-1.790;2023-05-16T06:32:25;102026.59;;;9.05;63.49
78407;BME280;67692;51.074;-1.790;2023-05-16T06:34:52;102024.78;;;9.07;62.66
78407;BME280;67692;51.074;-1.790;2023-05-16T06:37:18;102028.34;;;9.04;62.40
78407;BME280;67692;51.074;-1.790;2023-05-16T06:39:45;102031.25;;;9.17;62.74
78407;BME280;67692;51.074;-1.790;2023-05-16T06:42:11;102032.50;;;9.29;62.91
78407;BME280;67692;51.074;-1.790;2023-05-16T06:44:38;102026.56;;;9.27;62.22
78407;BME280;67692;51.074;-1.790;2023-05-16T06:47:05;102026.41;;;9.30;62.56
78407;BME280;67692;51.074;-1.790;2023-05-16T06:49:33;102037.84;;;9.44;62.42
78407;BME280;67692;51.074;-1.790;2023-05-16T06:52:01;102036.34;;;9.39;61.79
78407;BME280;67692;51.074;-1.790;2023-05-16T06:54:28;102029.78;;;9.32;61.71
78407;BME280;67692;51.074;-1.790;2023-05-16T06:56:54;102032.75;;;9.43;61.66
78407;BME280;67692;51.074;-1.790;2023-05-16T06:59:21;102030.88;;;9.46;61.47
78407;BME280;67692;51.074;-1.790;2023-05-16T07:01:48;102033.38;;;9.48;61.52
78407;BME280;67692;51.074;-1.790;2023-05-16T07:04:14;102030.53;;;9.54;61.64
78407;BME280;67692;51.074;-1.790;2023-05-16T07:06:42;102034.53;;;9.61;61.26
78407;BME280;67692;51.074;-1.790;2023-05-16T07:09:09;102028.66;;;9.58;61.47
78407;BME280;67692;51.074;-1.790;2023-05-16T07:11:35;102028.31;;;9.65;61.45
78407;BME280;67692;51.074;-1.790;2023-05-16T07:14:02;102029.88;;;9.69;61.75
78407;BME280;67692;51.074;-1.790;2023-05-16T07:16:29;102043.84;;;9.65;62.15
78407;BME280;67692;51.074;-1.790;2023-05-16T07:18:55;102040.28;;;9.68;62.50
78407;BME280;67692;51.074;-1.790;2023-05-16T07:21:22;102038.13;;;9.77;61.90
78407;BME280;67692;51.074;-1.790;2023-05-16T07:23:50;102043.47;;;9.93;61.50
78407;BME280;67692;51.074;-1.790;2023-05-16T07:26:16;102040.63;;;9.99;61.04
78407;BME280;67692;51.074;-1.790;2023-05-16T07:28:46;102040.88;;;10.12;61.06
78407;BME280;67692;51.074;-1.790;2023-05-16T07:31:12;102047.97;;;10.08;60.37
78407;BME280;67692;51.074;-1.790;2023-05-16T07:33:40;102046.97;;;10.11;60.73
78407;BME280;67692;51.074;-1.790;2023-05-16T07:36:07;102051.75;;;10.20;59.99
78407;BME280;67692;51.074;-1.790;2023-05-16T07:38:34;102052.13;;;10.31;59.93
78407;BME280;67692;51.074;-1.790;2023-05-16T07:41:02;102041.63;;;10.34;60.00
78407;BME280;67692;51.074;-1.790;2023-05-16T07:43:29;102048.16;;;10.43;60.28
78407;BME280;67692;51.074;-1.790;2023-05-16T07:45:56;102046.09;;;10.50;59.77
78407;BME280;67692;51.074;-1.790;2023-05-16T07:48:23;102057.56;;;10.63;58.78
78407;BME280;67692;51.074;-1.790;2023-05-16T07:50:49;102048.72;;;10.67;58.74
78407;BME280;67692;51.074;-1.790;2023-05-16T07:53:16;102052.03;;;10.70;58.33
78407;BME280;67692;51.074;-1.790;2023-05-16T07:55:42;102050.28;;;10.71;57.71
78407;BME280;67692;51.074;-1.790;2023-05-16T07:58:11;102060.09;;;10.82;57.26
78407;BME280;67692;51.074;-1.790;2023-05-16T08:00:37;102052.97;;;10.87;57.03
78407;BME280;67692;51.074;-1.790;2023-05-16T08:03:04;102045.66;;;10.95;58.26
78407;BME280;67692;51.074;-1.790;2023-05-16T08:05:31;102053.06;;;11.02;56.96
78407;BME280;67692;51.074;-1.790;2023-05-16T08:07:57;102060.09;;;11.00;55.60
78407;BME280;67692;51.074;-1.790;2023-05-16T08:10:24;102056.09;;;11.11;55.54
78407;BME280;67692;51.074;-1.790;2023-05-16T08:12:51;102052.22;;;11.02;55.09
78407;BME280;67692;51.074;-1.790;2023-05-16T08:15:20;102062.88;;;11.13;55.13
78407;BME280;67692;51.074;-1.790;2023-05-16T08:17:46;102056.81;;;11.14;55.53
78407;BME280;67692;51.074;-1.790;2023-05-16T08:20:13;102058.84;;;11.08;55.34
78407;BME280;67692;51.074;-1.790;2023-05-16T08:22:40;102051.75;;;11.11;55.32
78407;BME280;67692;51.074;-1.790;2023-05-16T08:25:07;102061.44;;;11.25;55.78
78407;BME280;67692;51.074;-1.790;2023-05-16T08:27:34;102058.16;;;11.39;55.56
78407;BME280;67692;51.074;-1.790;2023-05-16T08:30:01;102064.34;;;11.53;55.13
78407;BME280;67692;51.074;-1.790;2023-05-16T08:32:29;102054.44;;;11.44;54.37
78407;BME280;67692;51.074;-1.790;2023-05-16T08:34:55;102065.09;;;11.55;54.01
78407;BME280;67692;51.074;-1.790;2023-05-16T08:37:22;102053.13;;;11.53;53.19
78407;BME280;67692;51.074;-1.790;2023-05-16T08:39:49;102059.69;;;11.60;53.67
78407;BME280;67692;51.074;-1.790;2023-05-16T08:42:15;102057.31;;;11.55;53.28
78407;BME280;67692;51.074;-1.790;2023-05-16T08:44:42;102059.69;;;11.60;54.05
78407;BME280;67692;51.074;-1.790;2023-05-16T08:47:10;102057.34;;;11.71;53.79
78407;BME280;67692;51.074;-1.790;2023-05-16T08:49:40;102064.63;;;11.82;53.20
78407;BME280;67692;51.074;-1.790;2023-05-16T08:52:07;102060.75;;;11.73;53.12
78407;BME280;67692;51.074;-1.790;2023-05-16T08:54:35;102062.88;;;11.82;54.32
78407;BME280;67692;51.074;-1.790;2023-05-16T08:57:02;102055.19;;;11.97;54.70
78407;BME280;67692;51.074;-1.790;2023-05-16T08:59:29;102054.97;;;12.01;54.81
78407;BME280;67692;51.074;-1.790;2023-05-16T09:01:57;102056.16;;;12.11;55.01
78407;BME280;67692;51.074;-1.790;2023-05-16T09:04:24;102050.94;;;12.11;54.76
78407;BME280;67692;51.074;-1.790;2023-05-16T09:06:53;102056.66;;;12.18;54.06
78407;BME280;67692;51.074;-1.790;2023-05-16T09:09:19;102073.00;;;12.20;53.98
78407;BME280;67692;51.074;-1.790;2023-05-16T09:11:46;102057.22;;;12.07;54.63
78407;BME280;67692;51.074;-1.790;2023-05-16T09:14:13;102064.00;;;11.94;54.87
78407;BME280;67692;51.074;-1.790;2023-05-16T09:16:40;102071.25;;;12.20;55.54
78407;BME280;67692;51.074;-1.790;2023-05-16T09:19:06;102060.28;;;12.15;55.17
78407;BME280;67692;51.074;-1.790;2023-05-16T09:21:34;102072.25;;;12.34;54.38
78407;BME280;67692;51.074;-1.790;2023-05-16T09:24:07;102066.41;;;12.46;53.63
78407;BME280;67692;51.074;-1.790;2023-05-16T09:26:35;102060.94;;;12.66;54.13
78407;BME280;67692;51.074;-1.790;2023-05-16T09:29:01;102071.75;;;12.74;52.17
78407;BME280;67692;51.074;-1.790;2023-05-16T09:31:35;102080.13;;;12.79;52.34
78407;BME280;67692;51.074;-1.790;2023-05-16T09:34:03;102081.47;;;12.55;52.00
78407;BME280;67692;51.074;-1.790;2023-05-16T09:36:31;102065.56;;;12.61;52.69
78407;BME280;67692;51.074;-1.790;2023-05-16T09:38:57;102080.91;;;12.50;51.40
78407;BME280;67692;51.074;-1.790;2023-05-16T09:41:26;102062.72;;;12.50;52.09
78407;BME280;67692;51.074;-1.790;2023-05-16T09:43:52;102081.38;;;12.72;50.57
78407;BME280;67692;51.074;-1.790;2023-05-16T09:46:24;102066.69;;;12.87;51.03
78407;BME280;67692;51.074;-1.790;2023-05-16T09:48:51;102070.34;;;12.99;50.71
78407;BME280;67692;51.074;-1.790;2023-05-16T09:51:21;102063.38;;;12.99;50.65
78407;BME280;67692;51.074;-1.790;2023-05-16T09:53:48;102062.00;;;12.94;51.57
78407;BME280;67692;51.074;-1.790;2023-05-16T09:56:15;102064.63;;;13.08;52.29
78407;BME280;67692;51.074;-1.790;2023-05-16T09:58:44;102064.56;;;13.09;51.72
78407;BME280;67692;51.074;-1.790;2023-05-16T10:01:11;102067.81;;;13.13;51.85
78407;BME280;67692;51.074;-1.790;2023-05-16T10:03:40;102068.44;;;13.18;50.32
78407;BME280;67692;51.074;-1.790;2023-05-16T10:06:08;102063.03;;;13.21;50.88
78407;BME280;67692;51.074;-1.790;2023-05-16T10:08:35;102063.28;;;13.17;51.21
78407;BME280;67692;51.074;-1.790;2023-05-16T10:11:03;102068.72;;;13.12;50.37
78407;BME280;67692;51.074;-1.790;2023-05-16T10:13:32;102075.22;;;13.05;50.79
78407;BME280;67692;51.074;-1.790;2023-05-16T10:16:06;102070.34;;;12.99;50.94
78407;BME280;67692;51.074;-1.790;2023-05-16T10:18:34;102071.03;;;13.02;50.24
78407;BME280;67692;51.074;-1.790;2023-05-16T10:21:04;102071.88;;;13.03;51.05
78407;BME280;67692;51.074;-1.790;2023-05-16T10:23:32;102067.63;;;13.16;50.50
78407;BME280;67692;51.074;-1.790;2023-05-16T10:26:01;102054.88;;;13.11;50.01
78407;BME280;67692;51.074;-1.790;2023-05-16T10:28:28;102070.22;;;13.02;49.62
78407;BME280;67692;51.074;-1.790;2023-05-16T10:30:56;102067.38;;;12.91;49.90
78407;BME280;67692;51.074;-1.790;2023-05-16T10:33:24;102068.38;;;12.88;50.68
78407;BME280;67692;51.074;-1.790;2023-05-16T10:35:51;102067.34;;;13.06;50.80
78407;BME280;67692;51.074;-1.790;2023-05-16T10:38:19;102063.25;;;13.02;49.85
78407;BME280;67692;51.074;-1.790;2023-05-16T10:40:48;102069.00;;;13.07;48.64
78407;BME280;67692;51.074;-1.790;2023-05-16T10:43:23;102064.19;;;13.16;47.87
78407;BME280;67692;51.074;-1.790;2023-05-16T10:45:54;102051.22;;;13.46;47.73
78407;BME280;67692;51.074;-1.790;2023-05-16T10:48:29;102052.97;;;13.74;47.02
78407;BME280;67692;51.074;-1.790;2023-05-16T10:50:56;102051.59;;;13.96;48.03
78407;BME280;67692;51.074;-1.790;2023-05-16T10:53:29;102052.53;;;13.95;47.57
78407;BME280;67692;51.074;-1.790;2023-05-16T10:56:07;102066.47;;;13.66;49.16
78407;BME280;67692;51.074;-1.790;2023-05-16T10:58:46;102063.13;;;13.64;48.22
78407;BME280;67692;51.074;-1.790;2023-05-16T11:01:18;102061.72;;;13.73;49.16
78407;BME280;67692;51.074;-1.790;2023-05-16T11:04:05;102063.47;;;13.58;48.49
78407;BME280;67692;51.074;-1.790;2023-05-16T11:06:33;102065.31;;;13.56;48.86
78407;BME280;67692;51.074;-1.790;2023-05-16T11:09:04;102052.69;;;13.50;48.42
78407;BME280;67692;51.074;-1.790;2023-05-16T11:11:42;102054.09;;;13.55;47.13
78407;BME280;67692;51.074;-1.790;2023-05-16T11:14:19;102048.22;;;13.52;48.78
78407;BME280;67692;51.074;-1.790;2023-05-16T11:16:48;102055.13;;;13.67;47.05
78407;BME280;67692;51.074;-1.790;2023-05-16T11:19:29;102033.38;;;13.68;47.07
78407;BME280;67692;51.074;-1.790;2023-05-16T11:22:05;102044.91;;;13.64;47.17
78407;BME280;67692;51.074;-1.790;2023-05-16T11:24:32;102026.09;;;13.73;48.00
78407;BME280;67692;51.074;-1.790;2023-05-16T11:26:59;102029.09;;;13.81;47.91
78407;BME280;67692;51.074;-1.790;2023-05-16T11:29:27;102034.28;;;13.67;47.44
78407;BME280;67692;51.074;-1.790;2023-05-16T11:31:57;102044.91;;;13.78;47.86
78407;BME280;67692;51.074;-1.790;2023-05-16T11:34:24;102024.44;;;13.72;46.99
78407;BME280;67692;51.074;-1.790;2023-05-16T11:36:52;102025.25;;;13.73;46.67
78407;BME280;67692;51.074;-1.790;2023-05-16T11:39:20;102024.53;;;13.70;47.41
78407;BME280;67692;51.074;-1.790;2023-05-16T11:41:48;102039.50;;;13.67;47.53
78407;BME280;67692;51.074;-1.790;2023-05-16T11:44:15;102019.22;;;13.72;47.68
78407;BME280;67692;51.074;-1.790;2023-05-16T11:46:42;102036.69;;;13.98;48.58
78407;BME280;67692;51.074;-1.790;2023-05-16T11:49:10;102035.75;;;13.99;48.31
78407;BME280;67692;51.074;-1.790;2023-05-16T11:51:37;102029.63;;;14.00;48.85
78407;BME280;67692;51.074;-1.790;2023-05-16T11:54:05;102042.09;;;13.95;48.66
78407;BME280;67692;51.074;-1.790;2023-05-16T11:56:34;102033.47;;;13.81;48.60
78407;BME280;67692;51.074;-1.790;2023-05-16T11:59:02;102024.81;;;13.94;48.97
78407;BME280;67692;51.074;-1.790;2023-05-16T12:01:33;102040.41;;;14.09;47.82
78407;BME280;67692;51.074;-1.790;2023-05-16T12:04:01;102029.81;;;14.12;48.13
78407;BME280;67692;51.074;-1.790;2023-05-16T12:06:28;102030.28;;;14.18;47.23
78407;BME280;67692;51.074;-1.790;2023-05-16T12:08:55;102033.00;;;14.29;48.01
78407;BME280;67692;51.074;-1.790;2023-05-16T12:11:23;102034.69;;;14.30;48.27
78407;BME280;67692;51.074;-1.790;2023-05-16T12:13:50;102031.19;;;14.17;48.77
78407;BME280;67692;51.074;-1.790;2023-05-16T12:16:17;102028.69;;;14.43;49.34
78407;BME280;67692;51.074;-1.790;2023-05-16T12:18:44;102031.41;;;14.41;48.24
78407;BME280;67692;51.074;-1.790;2023-05-16T12:21:11;102024.09;;;14.48;47.58
78407;BME280;67692;51.074;-1.790;2023-05-16T12:23:40;102017.94;;;14.49;48.12
78407;BME280;67692;51.074;-1.790;2023-05-16T12:26:07;102039.22;;;14.55;48.33
78407;BME280;67692;51.074;-1.790;2023-05-16T12:28:35;102020.06;;;14.42;48.48
78407;BME280;67692;51.074;-1.790;2023-05-16T12:31:10;102020.34;;;14.38;48.64
78407;BME280;67692;51.074;-1.790;2023-05-16T12:33:37;102013.84;;;14.45;48.24
78407;BME280;67692;51.074;-1.790;2023-05-16T12:36:04;102015.50;;;14.46;48.41
78407;BME280;67692;51.074;-1.790;2023-05-16T12:38:38;102015.28;;;14.63;48.30
78407;BME280;67692;51.074;-1.790;2023-05-16T12:41:05;102026.13;;;14.70;49.05
78407;BME280;67692;51.074;-1.790;2023-05-16T12:43:31;102026.19;;;14.55;47.70
78407;BME280;67692;51.074;-1.790;2023-05-16T12:45:59;102027.84;;;14.56;48.26
78407;BME280;67692;51.074;-1.790;2023-05-16T12:48:31;102023.25;;;14.47;48.20